createdAt,value
2023-01-18T00:02:34.682Z,99119.09
2023-01-18T00:05:24.082Z,99115.28
2023-01-18T00:08:16.486Z,99121.53
2023-01-18T00:11:06.526Z,99124.97
2023-01-18T00:13:57.130Z,99115.63
2023-01-18T00:16:46.403Z,99143.09
2023-01-18T00:19:36.138Z,99135.91
2023-01-18T00:22:25.419Z,99125.00
2023-01-18T00:25:14.714Z,99144.09
2023-01-18T00:28:04.021Z,99135.91
2023-01-18T00:30:54.725Z,99127.91
2023-01-18T00:33:45.293Z,99124.72
2023-01-18T00:36:34.979Z,99130.09
2023-01-18T00:39:24.516Z,99140.50
2023-01-18T00:42:31.405Z,99121.03
2023-01-18T00:45:21.351Z,99124.09
2023-01-18T00:48:11.960Z,99142.50
2023-01-18T00:51:01.215Z,99135.63
2023-01-18T00:53:50.947Z,99139.38
2023-01-18T00:56:40.136Z,99147.69
2023-01-18T00:59:29.464Z,99155.59
2023-01-18T01:02:18.808Z,99153.41
2023-01-18T01:05:36.122Z,99134.78
2023-01-18T01:08:25.419Z,99154.38
2023-01-18T01:11:15.237Z,99140.88
2023-01-18T01:14:22.228Z,99147.38
2023-01-18T01:17:28.574Z,99148.41
2023-01-18T01:20:37.058Z,99152.75
2023-01-18T01:23:43.727Z,99147.38
2023-01-18T01:26:32.918Z,99156.66
2023-01-18T01:29:22.309Z,99152.81
2023-01-18T01:32:11.930Z,99173.44
2023-01-18T01:35:01.164Z,99183.00
2023-01-18T01:37:51.842Z,99200.28
2023-01-18T01:40:41.210Z,99190.00
2023-01-18T01:43:43.765Z,99181.19
2023-01-18T01:46:42.246Z,99181.09
2023-01-18T01:49:35.028Z,99189.06
2023-01-18T01:52:28.284Z,99190.94
2023-01-18T01:55:23.000Z,99194.53
2023-01-18T01:58:18.069Z,99195.13
2023-01-18T02:01:09.334Z,99199.84
2023-01-18T02:04:02.217Z,99212.34
2023-01-18T02:06:51.448Z,99203.47
2023-01-18T02:09:41.542Z,99223.47
2023-01-18T02:12:33.083Z,99224.31
2023-01-18T02:15:24.363Z,99237.09
2023-01-18T02:18:25.249Z,99246.22
2023-01-18T02:21:19.784Z,99232.34
2023-01-18T02:25:06.843Z,99241.31
2023-01-18T02:28:10.330Z,99251.44
2023-01-18T02:31:08.564Z,99256.09
2023-01-18T02:34:06.277Z,99251.69
2023-01-18T02:37:05.648Z,99266.91
2023-01-18T02:40:11.233Z,99283.22
2023-01-18T02:43:23.915Z,99284.78
2023-01-18T02:46:34.160Z,99265.91
2023-01-18T02:49:32.200Z,99277.84
2023-01-18T02:52:42.663Z,99265.41
2023-01-18T02:55:40.677Z,99253.94
2023-01-18T02:58:35.609Z,99251.03
2023-01-18T03:01:34.400Z,99273.72
2023-01-18T03:04:27.934Z,99276.03
2023-01-18T03:07:25.677Z,99278.16
2023-01-18T03:10:18.115Z,99272.97
2023-01-18T03:13:17.039Z,99275.69
2023-01-18T03:16:14.155Z,99275.38
2023-01-18T03:19:28.143Z,99258.75
2023-01-18T03:22:17.653Z,99258.56
2023-01-18T03:25:08.787Z,99262.03
2023-01-18T03:28:18.778Z,99258.41
2023-01-18T03:31:30.492Z,99279.97
2023-01-18T03:34:28.265Z,99292.16
2023-01-18T03:37:21.990Z,99286.97
2023-01-18T03:40:17.036Z,99305.78
2023-01-18T03:43:16.244Z,99320.59
2023-01-18T03:46:08.225Z,99319.28
2023-01-18T03:48:58.453Z,99294.75
2023-01-18T03:52:07.204Z,99298.84
2023-01-18T03:55:04.802Z,99310.72
2023-01-18T03:57:58.698Z,99312.78
2023-01-18T04:00:48.078Z,99311.75
2023-01-18T04:03:37.264Z,99323.69
2023-01-18T04:06:27.027Z,99323.13
2023-01-18T04:09:17.741Z,99329.59
2023-01-18T04:12:07.512Z,99323.88
2023-01-18T04:14:56.768Z,99332.75
2023-01-18T04:17:45.979Z,99335.50
2023-01-18T04:20:35.243Z,99338.94
2023-01-18T04:23:25.014Z,99320.72
2023-01-18T04:26:16.793Z,99334.00
2023-01-18T04:29:06.802Z,99336.59
2023-01-18T04:31:56.360Z,99326.31
2023-01-18T04:34:45.825Z,99362.13
2023-01-18T04:37:35.124Z,99354.34
2023-01-18T04:40:24.314Z,99359.88
2023-01-18T04:43:15.130Z,99360.59
2023-01-18T04:46:04.733Z,99354.84
2023-01-18T04:48:54.132Z,99363.97
2023-01-18T04:51:44.699Z,99370.09
2023-01-18T04:54:34.113Z,99366.59
2023-01-18T04:57:23.391Z,99370.09
2023-01-18T05:00:16.112Z,99373.88
2023-01-18T05:03:05.456Z,99361.78
2023-01-18T05:05:56.236Z,99369.88
2023-01-18T05:08:45.478Z,99378.72
2023-01-18T05:11:34.753Z,99360.84
2023-01-18T05:14:24.048Z,99366.78
2023-01-18T05:17:14.620Z,99372.56
2023-01-18T05:20:06.496Z,99375.38
2023-01-18T05:22:55.919Z,99394.06
2023-01-18T05:25:45.630Z,99391.44
2023-01-18T05:28:34.855Z,99407.56
2023-01-18T05:31:24.184Z,99411.78
2023-01-18T05:34:14.830Z,99401.00
2023-01-18T05:37:04.854Z,99414.78
2023-01-18T05:39:54.056Z,99423.56
2023-01-18T05:42:43.612Z,99425.69
2023-01-18T05:45:33.005Z,99417.44
2023-01-18T05:48:22.876Z,99415.91
2023-01-18T05:51:14.793Z,99429.59
2023-01-18T05:54:04.135Z,99434.66
2023-01-18T05:56:53.396Z,99431.75
2023-01-18T05:59:42.816Z,99436.78
2023-01-18T06:02:32.093Z,99432.56
2023-01-18T06:05:22.136Z,99445.53
2023-01-18T06:08:12.828Z,99438.53
2023-01-18T06:11:02.335Z,99441.50
2023-01-18T06:13:52.438Z,99441.00
2023-01-18T06:16:41.750Z,99424.69
2023-01-18T06:19:31.106Z,99451.84
2023-01-18T06:22:20.487Z,99452.72
2023-01-18T06:25:11.539Z,99457.03
2023-01-18T06:28:01.066Z,99470.50
2023-01-18T06:30:53.305Z,99476.88
2023-01-18T06:33:42.658Z,99490.31
2023-01-18T06:36:33.063Z,99473.69
2023-01-18T06:39:22.383Z,99503.84
2023-01-18T06:42:13.058Z,99514.34
2023-01-18T06:45:02.328Z,99518.47
2023-01-18T06:47:52.076Z,99523.53
2023-01-18T06:50:41.399Z,99534.03
2023-01-18T06:53:30.674Z,99524.75
2023-01-18T06:56:20.006Z,99545.63
2023-01-18T06:59:10.749Z,99551.03
2023-01-18T07:02:00.321Z,99557.00
2023-01-18T07:04:49.710Z,99561.88
2023-01-18T07:07:39.138Z,99578.28
2023-01-18T07:10:28.437Z,99583.97
2023-01-18T07:13:17.802Z,99584.88
2023-01-18T07:16:13.284Z,99581.28
2023-01-18T07:19:04.136Z,99588.25
2023-01-18T07:21:54.621Z,99575.47
2023-01-18T07:24:43.865Z,99597.25
2023-01-18T07:27:33.253Z,99600.75
2023-01-18T07:30:22.741Z,99609.25
2023-01-18T07:33:13.883Z,99610.31
2023-01-18T07:36:05.140Z,99632.63
2023-01-18T07:38:54.393Z,99632.97
2023-01-18T07:41:43.769Z,99645.31
2023-01-18T07:44:33.014Z,99614.97
2023-01-18T07:47:22.313Z,99625.44
2023-01-18T07:50:14.430Z,99641.09
2023-01-18T07:53:06.411Z,99637.56
2023-01-18T07:55:59.673Z,99641.06
2023-01-18T07:58:49.099Z,99637.50
2023-01-18T08:01:38.591Z,99642.00
2023-01-18T08:04:27.992Z,99629.66
2023-01-18T08:07:18.922Z,99639.38
2023-01-18T08:10:08.742Z,99645.19
2023-01-18T08:12:58.605Z,99656.84
2023-01-18T08:15:48.067Z,99648.13
2023-01-18T08:18:37.400Z,99651.66
2023-01-18T08:21:26.673Z,99659.22
2023-01-18T08:24:18.019Z,99660.84
2023-01-18T08:27:07.215Z,99672.94
2023-01-18T08:29:57.256Z,99674.56
2023-01-18T08:32:46.481Z,99681.25
2023-01-18T08:35:41.123Z,99680.44
2023-01-18T08:38:30.409Z,99688.28
2023-01-18T08:41:22.748Z,99687.19
2023-01-18T08:44:12.411Z,99696.03
2023-01-18T08:47:01.653Z,99695.28
2023-01-18T08:49:50.868Z,99711.09
2023-01-18T08:52:40.268Z,99709.19
2023-01-18T08:55:30.814Z,99702.66
2023-01-18T08:58:21.526Z,99710.66
2023-01-18T09:01:11.627Z,99713.53
2023-01-18T09:04:00.881Z,99712.69
2023-01-18T09:06:51.557Z,99715.34
2023-01-18T09:09:40.854Z,99717.13
2023-01-18T09:12:30.067Z,99719.91
2023-01-18T09:15:20.811Z,99710.22
2023-01-18T09:18:10.279Z,99725.16
2023-01-18T09:20:59.841Z,99728.38
2023-01-18T09:23:51.007Z,99737.81
2023-01-18T09:26:41.064Z,99731.81
2023-01-18T09:29:31.207Z,99735.72
2023-01-18T09:32:22.216Z,99727.91
2023-01-18T09:35:11.937Z,99738.81
2023-01-18T09:38:01.185Z,99733.50
2023-01-18T09:40:53.071Z,99745.78
2023-01-18T09:43:50.083Z,99755.25
2023-01-18T09:46:42.558Z,99752.94
2023-01-18T09:49:42.097Z,99746.09
2023-01-18T09:52:42.636Z,99758.00
2023-01-18T09:55:47.295Z,99762.19
2023-01-18T09:58:48.592Z,99776.25
2023-01-18T10:01:39.020Z,99770.13
2023-01-18T10:04:37.594Z,99780.59
2023-01-18T10:07:30.723Z,99787.78
2023-01-18T10:10:20.631Z,99781.66
2023-01-18T10:13:40.451Z,99784.91
2023-01-18T10:16:30.348Z,99799.53
2023-01-18T10:19:26.228Z,99781.09
2023-01-18T10:22:24.157Z,99775.44
2023-01-18T10:25:20.083Z,99785.84
2023-01-18T10:28:39.670Z,99796.59
2023-01-18T10:31:44.364Z,99803.03
2023-01-18T10:34:36.228Z,99803.84
2023-01-18T10:37:39.005Z,99811.44
2023-01-18T10:40:28.329Z,99819.66
2023-01-18T10:43:20.638Z,99802.03
2023-01-18T10:46:16.816Z,99796.59
2023-01-18T10:49:08.427Z,99834.06
2023-01-18T10:51:57.715Z,99847.91
2023-01-18T10:54:56.116Z,99839.44
2023-01-18T10:57:50.269Z,99848.88
2023-01-18T11:00:40.333Z,99852.63
2023-01-18T11:03:40.109Z,99848.41
2023-01-18T11:06:29.854Z,99859.53
2023-01-18T11:09:42.959Z,99861.78
2023-01-18T11:12:43.551Z,99858.56
2023-01-18T11:15:33.028Z,99856.53
2023-01-18T11:18:22.360Z,99850.00
2023-01-18T11:21:12.643Z,99859.91
2023-01-18T11:24:09.786Z,99856.16
2023-01-18T11:27:02.314Z,99853.97
2023-01-18T11:29:53.675Z,99862.75
2023-01-18T11:32:42.885Z,99867.00
2023-01-18T11:35:36.595Z,99870.16
2023-01-18T11:38:32.535Z,99849.34
2023-01-18T11:41:23.584Z,99861.84
2023-01-18T11:44:22.713Z,99877.44
2023-01-18T11:47:22.995Z,99871.88
2023-01-18T11:50:28.492Z,99884.56
2023-01-18T11:53:32.056Z,99891.22
2023-01-18T11:56:33.171Z,99836.78
2023-01-18T11:59:29.646Z,99886.09
2023-01-18T12:02:58.927Z,99913.75
2023-01-18T12:05:55.869Z,99908.78
2023-01-18T12:09:05.019Z,99920.31
2023-01-18T12:12:19.451Z,99927.59
2023-01-18T12:15:43.247Z,99912.91
2023-01-18T12:19:07.981Z,99932.16
2023-01-18T12:22:32.365Z,99924.88
2023-01-18T12:26:11.882Z,99935.94
2023-01-18T12:29:56.746Z,99932.41
2023-01-18T12:33:17.548Z,99945.38
2023-01-18T12:36:31.577Z,99941.13
2023-01-18T12:39:38.392Z,99945.84
2023-01-18T12:42:48.124Z,99948.69
2023-01-18T12:45:41.326Z,99951.13
2023-01-18T12:48:36.117Z,99944.38
2023-01-18T12:51:31.515Z,99939.78
2023-01-18T12:54:31.130Z,99958.28
2023-01-18T12:57:24.083Z,99947.75
2023-01-18T13:00:21.235Z,99944.28
2023-01-18T13:03:15.434Z,99947.81
2023-01-18T13:06:05.596Z,99954.63
2023-01-18T13:09:02.422Z,99949.75
2023-01-18T13:11:52.081Z,99959.25
2023-01-18T13:14:48.886Z,99956.09
2023-01-18T13:17:47.014Z,99951.63
2023-01-18T13:20:50.793Z,99957.34
2023-01-18T13:23:55.592Z,99947.81
2023-01-18T13:26:46.892Z,99937.28
2023-01-18T13:29:36.711Z,99949.59
2023-01-18T13:32:32.058Z,99947.50
2023-01-18T13:35:28.873Z,99954.47
2023-01-18T13:38:27.490Z,99953.09
2023-01-18T13:41:26.353Z,99956.38
2023-01-18T13:44:32.597Z,99961.38
2023-01-18T13:47:54.567Z,99964.38
2023-01-18T13:50:48.372Z,99960.06
2023-01-18T13:53:51.201Z,99950.31
2023-01-18T13:56:41.108Z,99966.13
2023-01-18T13:59:34.955Z,99966.66
2023-01-18T14:02:32.327Z,99960.50
2023-01-18T14:05:26.024Z,99915.16
2023-01-18T14:08:22.092Z,99967.09
2023-01-18T14:11:25.126Z,99973.91
2023-01-18T14:14:35.484Z,99971.84
2023-01-18T14:17:26.554Z,99975.88
2023-01-18T14:20:47.209Z,99994.63
2023-01-18T14:24:15.185Z,99996.97
2023-01-18T14:27:06.416Z,100005.50
2023-01-18T14:30:03.978Z,100009.28
2023-01-18T14:33:00.804Z,100012.66
2023-01-18T14:35:54.499Z,100024.19
2023-01-18T14:38:44.069Z,100011.84
2023-01-18T14:41:34.456Z,100031.50
2023-01-18T14:44:27.220Z,100042.81
2023-01-18T14:47:24.297Z,100050.94
2023-01-18T14:50:20.132Z,100038.28
2023-01-18T14:53:16.955Z,100055.41
2023-01-18T14:56:10.797Z,100057.91
2023-01-18T14:59:03.171Z,100061.38
2023-01-18T15:01:55.375Z,100061.94
2023-01-18T15:04:47.523Z,100058.59
2023-01-18T15:07:39.306Z,100068.56
2023-01-18T15:10:28.839Z,100100.53
2023-01-18T15:13:20.276Z,100089.63
2023-01-18T15:16:09.869Z,100084.94
2023-01-18T15:19:01.969Z,100093.41
2023-01-18T15:21:53.190Z,100108.06
2023-01-18T15:24:44.774Z,100110.28
2023-01-18T15:27:34.124Z,100117.63
2023-01-18T15:30:26.097Z,100121.97
2023-01-18T15:33:15.801Z,100131.50
2023-01-18T15:36:05.769Z,100131.69
2023-01-18T15:38:56.385Z,100129.94
2023-01-18T15:41:45.930Z,100133.31
2023-01-18T15:44:43.873Z,100144.13
2023-01-18T15:47:36.985Z,100153.50
2023-01-18T15:50:31.012Z,100157.81
2023-01-18T15:53:25.243Z,100149.44
2023-01-18T15:56:24.264Z,100146.91
2023-01-18T15:59:13.753Z,100151.50
2023-01-18T16:02:18.596Z,100141.75
2023-01-18T16:05:22.972Z,100165.88
2023-01-18T16:08:23.406Z,100170.31
2023-01-18T16:11:30.905Z,100176.13
2023-01-18T16:14:35.182Z,100180.81
2023-01-18T16:17:27.313Z,100199.81
2023-01-18T16:20:18.215Z,100195.47
2023-01-18T16:23:11.147Z,100183.06
2023-01-18T16:26:05.523Z,100202.69
2023-01-18T16:29:05.357Z,100212.19
2023-01-18T16:32:15.458Z,100215.75
2023-01-18T16:35:15.140Z,100213.44
2023-01-18T16:38:05.158Z,100203.72
2023-01-18T16:40:55.436Z,100211.53
2023-01-18T16:43:45.077Z,100227.06
2023-01-18T16:46:36.931Z,100230.03
2023-01-18T16:49:27.265Z,100239.44
2023-01-18T16:52:17.209Z,100240.00
2023-01-18T16:55:08.002Z,100241.69
2023-01-18T16:57:57.561Z,100243.38
2023-01-18T17:00:57.489Z,100251.81
2023-01-18T17:03:50.186Z,100251.09
2023-01-18T17:06:42.611Z,100255.47
2023-01-18T17:09:40.374Z,100261.19
2023-01-18T17:12:33.569Z,100277.19
2023-01-18T17:15:23.163Z,100282.84
2023-01-18T17:18:16.623Z,100266.78
2023-01-18T17:21:07.557Z,100289.66
2023-01-18T17:23:56.882Z,100301.81
2023-01-18T17:26:46.262Z,100315.09
2023-01-18T17:29:35.601Z,100320.53
2023-01-18T17:32:25.239Z,100322.50
2023-01-18T17:35:16.236Z,100334.91
2023-01-18T17:38:11.298Z,100327.16
2023-01-18T17:41:01.018Z,100329.84
2023-01-18T17:43:50.678Z,100322.59
2023-01-18T17:46:40.258Z,100312.91
2023-01-18T17:49:29.623Z,100330.75
2023-01-18T17:52:18.918Z,100340.78
2023-01-18T17:55:15.249Z,100333.81
2023-01-18T17:58:04.829Z,100348.44
2023-01-18T18:00:55.451Z,100327.94
2023-01-18T18:03:48.492Z,100351.13
2023-01-18T18:06:40.507Z,100354.66
2023-01-18T18:09:40.666Z,100350.63
2023-01-18T18:12:33.609Z,100347.91
2023-01-18T18:15:23.606Z,100369.31
2023-01-18T18:18:22.708Z,100366.63
2023-01-18T18:21:12.940Z,100363.13
2023-01-18T18:24:02.282Z,100361.53
2023-01-18T18:26:51.890Z,100376.38
2023-01-18T18:29:42.770Z,100380.75
2023-01-18T18:32:31.979Z,100388.28
2023-01-18T18:35:26.274Z,100392.38
2023-01-18T18:38:18.905Z,100375.31
2023-01-18T18:41:08.994Z,100379.94
2023-01-18T18:43:58.553Z,100386.97
2023-01-18T18:46:49.245Z,100380.22
2023-01-18T18:49:38.727Z,100386.16
2023-01-18T18:52:28.046Z,100382.09
2023-01-18T18:55:19.078Z,100388.59
2023-01-18T18:58:08.428Z,100396.72
2023-01-18T19:00:57.857Z,100396.19
2023-01-18T19:03:49.466Z,100395.38
2023-01-18T19:06:39.365Z,100390.78
2023-01-18T19:09:28.724Z,100389.16
2023-01-18T19:12:18.219Z,100371.06
2023-01-18T19:15:08.902Z,100391.81
2023-01-18T19:17:59.264Z,100396.72
2023-01-18T19:20:52.210Z,100399.69
2023-01-18T19:23:41.495Z,100404.28
2023-01-18T19:26:30.811Z,100389.69
2023-01-18T19:29:20.129Z,100406.44
2023-01-18T19:32:09.303Z,100404.28
2023-01-18T19:34:58.559Z,100407.00
2023-01-18T19:37:49.990Z,100403.75
2023-01-18T19:40:39.693Z,100402.41
2023-01-18T19:43:29.015Z,100415.66
2023-01-18T19:46:20.212Z,100407.56
2023-01-18T19:49:09.712Z,100416.72
2023-01-18T19:51:59.038Z,100421.59
2023-01-18T19:54:49.753Z,100421.59
2023-01-18T19:57:39.065Z,100428.09
2023-01-18T20:00:29.043Z,100423.22
2023-01-18T20:03:18.356Z,100421.84
2023-01-18T20:06:10.844Z,100417.28
2023-01-18T20:09:00.298Z,100430.78
2023-01-18T20:11:51.033Z,100430.25
2023-01-18T20:14:42.654Z,100435.66
2023-01-18T20:17:32.061Z,100434.31
2023-01-18T20:20:31.756Z,100422.69
2023-01-18T20:23:22.454Z,100424.31
2023-01-18T20:26:12.415Z,100423.22
2023-01-18T20:29:04.084Z,100427.81
2023-01-18T20:31:55.181Z,100424.31
2023-01-18T20:34:47.160Z,100417.25
2023-01-18T20:37:36.824Z,100422.66
2023-01-18T20:40:26.196Z,100411.28
2023-01-18T20:43:15.515Z,100405.59
2023-01-18T20:46:08.606Z,100426.41
2023-01-18T20:48:57.682Z,100406.13
2023-01-18T20:51:47.310Z,100410.75
2023-01-18T20:54:36.890Z,100415.31
2023-01-18T20:57:30.366Z,100424.75
2023-01-18T21:00:21.101Z,100423.91
2023-01-18T21:03:17.943Z,100431.78
2023-01-18T21:06:09.102Z,100429.63
2023-01-18T21:09:01.145Z,100426.38
2023-01-18T21:11:50.479Z,100425.03
2023-01-18T21:14:39.699Z,100416.94
2023-01-18T21:17:29.116Z,100418.03
2023-01-18T21:20:20.131Z,100413.97
2023-01-18T21:23:10.051Z,100402.91
2023-01-18T21:26:01.696Z,100406.63
2023-01-18T21:28:50.959Z,100406.38
2023-01-18T21:31:41.127Z,100410.69
2023-01-18T21:34:30.632Z,100387.47
2023-01-18T21:37:21.258Z,100404.22
2023-01-18T21:40:12.405Z,100397.72
2023-01-18T21:43:19.373Z,100409.63
2023-01-18T21:46:12.159Z,100405.28
2023-01-18T21:49:04.137Z,100405.31
2023-01-18T21:52:10.378Z,100407.75
2023-01-18T21:55:01.049Z,100407.22
2023-01-18T21:58:10.511Z,100402.38
2023-01-18T22:01:00.676Z,100424.25
2023-01-18T22:04:08.783Z,100423.19
2023-01-18T22:07:00.298Z,100407.78
2023-01-18T22:10:03.077Z,100404.81
2023-01-18T22:12:55.227Z,100411.31
2023-01-18T22:15:44.415Z,100415.34
2023-01-18T22:18:33.641Z,100411.28
2023-01-18T22:21:25.366Z,100421.03
2023-01-18T22:24:15.943Z,100398.59
2023-01-18T22:27:05.800Z,100402.66
2023-01-18T22:29:56.498Z,100400.47
2023-01-18T22:32:45.894Z,100401.56
2023-01-18T22:35:35.152Z,100394.53
2023-01-18T22:38:24.366Z,100393.19
2023-01-18T22:41:16.049Z,100400.72
2023-01-18T22:44:05.397Z,100388.56
2023-01-18T22:46:56.133Z,100375.59
2023-01-18T22:49:45.343Z,100385.88
2023-01-18T22:52:34.598Z,100374.25
2023-01-18T22:55:23.807Z,100382.09
2023-01-18T22:58:13.070Z,100380.19
2023-01-18T23:01:02.738Z,100385.59
2023-01-18T23:03:54.256Z,100381.56
2023-01-18T23:06:45.937Z,100386.97
2023-01-18T23:09:35.247Z,100388.88
2023-01-18T23:12:24.506Z,100382.94
2023-01-18T23:15:31.769Z,100386.44
2023-01-18T23:18:20.976Z,100394.53
2023-01-18T23:21:12.042Z,100383.75
2023-01-18T23:24:01.296Z,100378.06
2023-01-18T23:26:50.825Z,100377.28
2023-01-18T23:29:40.483Z,100375.38
2023-01-18T23:32:30.675Z,100374.31
2023-01-18T23:35:20.055Z,100370.25
2023-01-18T23:38:10.770Z,100376.19
2023-01-18T23:41:17.087Z,100369.16
2023-01-18T23:44:23.934Z,100385.09
2023-01-18T23:47:30.160Z,100372.41
2023-01-18T23:50:37.078Z,100377.56
2023-01-18T23:53:44.748Z,100375.66
2023-01-18T23:56:35.246Z,100362.13
2023-01-18T23:59:24.420Z,100375.66
